sensor_id;sensor_type;location;lat;lon;timestamp;pressure;altitude;pressure_sealevel;temperature;humidity
45253;BME280;63171;50.520;30.486;2023-04-25T00:03:26;99473.50;;;14.01;47.96
45253;BME280;63171;50.520;30.486;2023-04-25T00:04:16;99471.94;;;13.98;47.96
45253;BME280;63171;50.520;30.486;2023-04-25T00:05:07;99464.63;;;14.02;48.10
45253;BME280;63171;50.520;30.486;2023-04-25T00:05:58;99461.81;;;14.14;48.21
45253;BME280;63171;50.520;30.486;2023-04-25T00:06:51;99458.88;;;14.08;48.11
45253;BME280;63171;50.520;30.486;2023-04-25T00:07:42;99466.06;;;14.06;48.07
45253;BME280;63171;50.520;30.486;2023-04-25T00:08:32;99466.25;;;14.14;48.17
45253;BME280;63171;50.520;30.486;2023-04-25T00:09:23;99462.03;;;14.23;48.48
45253;BME280;63171;50.520;30.486;2023-04-25T00:10:13;99464.66;;;14.23;48.31
45253;BME280;63171;50.520;30.486;2023-04-25T00:11:04;99458.88;;;14.08;48.28
45253;BME280;63171;50.520;30.486;2023-04-25T00:11:54;99461.50;;;14.29;48.47
45253;BME280;63171;50.520;30.486;2023-04-25T00:12:45;99458.47;;;14.44;48.59
45253;BME280;63171;50.520;30.486;2023-04-25T00:13:34;99463.41;;;14.27;48.22
45253;BME280;63171;50.520;30.486;2023-04-25T00:14:25;99458.34;;;14.35;48.44
45253;BME280;63171;50.520;30.486;2023-04-25T00:15:15;99466.09;;;14.47;48.51
45253;BME280;63171;50.520;30.486;2023-04-25T00:16:07;99463.53;;;14.57;48.59
45253;BME280;63171;50.520;30.486;2023-04-25T00:16:57;99467.22;;;14.55;48.23
45253;BME280;63171;50.520;30.486;2023-04-25T00:17:48;99462.50;;;14.48;48.37
45253;BME280;63171;50.520;30.486;2023-04-25T00:18:39;99459.16;;;14.46;48.36
45253;BME280;63171;50.520;30.486;2023-04-25T00:19:30;99460.81;;;14.47;48.35
45253;BME280;63171;50.520;30.486;2023-04-25T00:20:19;99459.19;;;14.35;48.23
45253;BME280;63171;50.520;30.486;2023-04-25T00:21:11;99456.66;;;14.45;48.46
45253;BME280;63171;50.520;30.486;2023-04-25T00:22:02;99456.88;;;14.21;48.11
45253;BME280;63171;50.520;30.486;2023-04-25T00:22:52;99456.19;;;14.19;48.42
45253;BME280;63171;50.520;30.486;2023-04-25T00:23:42;99453.09;;;14.35;48.35
45253;BME280;63171;50.520;30.486;2023-04-25T00:24:34;99457.31;;;14.26;48.15
45253;BME280;63171;50.520;30.486;2023-04-25T00:25:24;99452.84;;;14.17;48.30
45253;BME280;63171;50.520;30.486;2023-04-25T00:26:15;99452.25;;;13.93;48.33
45253;BME280;63171;50.520;30.486;2023-04-25T00:27:05;99453.38;;;14.00;48.33
45253;BME280;63171;50.520;30.486;2023-04-25T00:27:56;99447.94;;;13.92;48.44
45253;BME280;63171;50.520;30.486;2023-04-25T00:28:46;99445.13;;;13.72;48.44
45253;BME280;63171;50.520;30.486;2023-04-25T00:29:37;99452.41;;;13.80;48.56
45253;BME280;63171;50.520;30.486;2023-04-25T00:30:27;99448.38;;;13.97;48.77
45253;BME280;63171;50.520;30.486;2023-04-25T00:31:17;99449.78;;;14.01;49.00
45253;BME280;63171;50.520;30.486;2023-04-25T00:32:07;99447.94;;;13.92;48.95
45253;BME280;63171;50.520;30.486;2023-04-25T00:32:58;99460.34;;;13.69;48.55
45253;BME280;63171;50.520;30.486;2023-04-25T00:33:49;99448.53;;;13.63;48.78
45253;BME280;63171;50.520;30.486;2023-04-25T00:34:40;99454.97;;;13.70;49.00
45253;BME280;63171;50.520;30.486;2023-04-25T00:35:30;99445.66;;;13.87;49.16
45253;BME280;63171;50.520;30.486;2023-04-25T00:36:21;99444.59;;;14.10;49.22
45253;BME280;63171;50.520;30.486;2023-04-25T00:37:11;99445.66;;;14.19;49.08
45253;BME280;63171;50.520;30.486;2023-04-25T00:38:02;99442.19;;;14.18;49.08
45253;BME280;63171;50.520;30.486;2023-04-25T00:38:52;99446.81;;;14.05;49.17
45253;BME280;63171;50.520;30.486;2023-04-25T00:39:43;99443.34;;;14.05;49.19
45253;BME280;63171;50.520;30.486;2023-04-25T00:40:35;99444.78;;;13.98;49.25
45253;BME280;63171;50.520;30.486;2023-04-25T00:41:26;99440.63;;;13.95;49.09
45253;BME280;63171;50.520;30.486;2023-04-25T00:42:16;99430.41;;;14.02;49.35
45253;BME280;63171;50.520;30.486;2023-04-25T00:43:06;99434.56;;;13.83;49.23
45253;BME280;63171;50.520;30.486;2023-04-25T00:43:56;99431.25;;;14.02;49.42
45253;BME280;63171;50.520;30.486;2023-04-25T00:44:48;99430.28;;;14.24;49.55
45253;BME280;63171;50.520;30.486;2023-04-25T00:45:39;99429.88;;;14.29;49.85
45253;BME280;63171;50.520;30.486;2023-04-25T00:46:30;99431.78;;;14.17;49.65
45253;BME280;63171;50.520;30.486;2023-04-25T00:47:20;99430.53;;;14.00;49.73
45253;BME280;63171;50.520;30.486;2023-04-25T00:48:13;99427.63;;;13.82;49.66
45253;BME280;63171;50.520;30.486;2023-04-25T00:49:04;99428.22;;;13.86;49.90
45253;BME280;63171;50.520;30.486;2023-04-25T00:49:55;99427.41;;;13.74;49.93
45253;BME280;63171;50.520;30.486;2023-04-25T00:50:51;99422.63;;;13.79;50.08
45253;BME280;63171;50.520;30.486;2023-04-25T00:51:43;99430.09;;;13.95;50.30
45253;BME280;63171;50.520;30.486;2023-04-25T00:52:34;99432.53;;;14.08;50.39
45253;BME280;63171;50.520;30.486;2023-04-25T00:53:27;99436.88;;;13.98;50.46
45253;BME280;63171;50.520;30.486;2023-04-25T00:54:17;99441.19;;;13.78;50.43
45253;BME280;63171;50.520;30.486;2023-04-25T00:55:08;99435.69;;;13.70;50.61
45253;BME280;63171;50.520;30.486;2023-04-25T00:55:59;99440.13;;;13.69;50.76
45253;BME280;63171;50.520;30.486;2023-04-25T00:56:49;99439.44;;;13.67;50.84
45253;BME280;63171;50.520;30.486;2023-04-25T00:57:40;99445.00;;;13.74;51.02
45253;BME280;63171;50.520;30.486;2023-04-25T00:58:31;99441.53;;;13.73;50.78
45253;BME280;63171;50.520;30.486;2023-04-25T00:59:21;99433.28;;;13.78;51.00
45253;BME280;63171;50.520;30.486;2023-04-25T01:00:12;99437.34;;;13.82;51.05
45253;BME280;63171;50.520;30.486;2023-04-25T01:01:03;99430.13;;;13.84;51.13
45253;BME280;63171;50.520;30.486;2023-04-25T01:01:54;99435.22;;;13.76;50.96
45253;BME280;63171;50.520;30.486;2023-04-25T01:02:44;99425.97;;;13.81;51.39
45253;BME280;63171;50.520;30.486;2023-04-25T01:03:37;99439.81;;;13.63;51.25
45253;BME280;63171;50.520;30.486;2023-04-25T01:04:31;99441.16;;;13.46;51.28
45253;BME280;63171;50.520;30.486;2023-04-25T01:05:22;99429.19;;;13.53;51.34
45253;BME280;63171;50.520;30.486;2023-04-25T01:06:12;99431.97;;;13.72;51.63
45253;BME280;63171;50.520;30.486;2023-04-25T01:07:03;99432.75;;;13.63;51.57
45253;BME280;63171;50.520;30.486;2023-04-25T01:07:53;99428.81;;;13.57;51.78
45253;BME280;63171;50.520;30.486;2023-04-25T01:08:44;99434.53;;;13.63;51.93
45253;BME280;63171;50.520;30.486;2023-04-25T01:09:33;99426.72;;;13.72;51.77
45253;BME280;63171;50.520;30.486;2023-04-25T01:10:24;99428.38;;;13.73;51.82
45253;BME280;63171;50.520;30.486;2023-04-25T01:11:14;99427.63;;;13.82;51.90
45253;BME280;63171;50.520;30.486;2023-04-25T01:12:05;99424.00;;;13.95;51.84
45253;BME280;63171;50.520;30.486;2023-04-25T01:12:55;99428.34;;;13.84;52.07
45253;BME280;63171;50.520;30.486;2023-04-25T01:13:46;99427.59;;;13.94;52.11
45253;BME280;63171;50.520;30.486;2023-04-25T01:14:36;99424.25;;;13.92;52.08
45253;BME280;63171;50.520;30.486;2023-04-25T01:15:28;99426.22;;;13.78;52.01
45253;BME280;63171;50.520;30.486;2023-04-25T01:16:18;99427.59;;;13.94;52.03
45253;BME280;63171;50.520;30.486;2023-04-25T01:17:09;99429.81;;;13.98;52.10
45253;BME280;63171;50.520;30.486;2023-04-25T01:17:59;99431.13;;;14.04;52.09
45253;BME280;63171;50.520;30.486;2023-04-25T01:18:51;99427.31;;;13.97;52.00
45253;BME280;63171;50.520;30.486;2023-04-25T01:19:43;99436.53;;;14.02;52.12
45253;BME280;63171;50.520;30.486;2023-04-25T01:20:33;99438.06;;;14.05;52.28
45253;BME280;63171;50.520;30.486;2023-04-25T01:21:26;99429.38;;;14.14;52.21
45253;BME280;63171;50.520;30.486;2023-04-25T01:22:17;99432.13;;;14.12;52.17
45253;BME280;63171;50.520;30.486;2023-04-25T01:23:09;99428.28;;;13.96;51.92
45253;BME280;63171;50.520;30.486;2023-04-25T01:24:00;99432.38;;;13.88;52.03
45253;BME280;63171;50.520;30.486;2023-04-25T01:24:51;99436.50;;;13.81;51.99
45253;BME280;63171;50.520;30.486;2023-04-25T01:25:41;99429.00;;;13.77;52.09
45253;BME280;63171;50.520;30.486;2023-04-25T01:26:33;99434.31;;;13.86;52.02
45253;BME280;63171;50.520;30.486;2023-04-25T01:27:23;99424.00;;;13.95;52.04
45253;BME280;63171;50.520;30.486;2023-04-25T01:28:15;99438.28;;;13.81;52.20
45253;BME280;63171;50.520;30.486;2023-04-25T01:29:06;99440.38;;;13.66;52.10
45253;BME280;63171;50.520;30.486;2023-04-25T01:29:59;99431.09;;;13.83;52.18
45253;BME280;63171;50.520;30.486;2023-04-25T01:30:50;99431.53;;;13.67;52.31
45253;BME280;63171;50.520;30.486;2023-04-25T01:31:42;99435.75;;;13.58;52.46
45253;BME280;63171;50.520;30.486;2023-04-25T01:32:33;99428.94;;;13.56;52.21
45253;BME280;63171;50.520;30.486;2023-04-25T01:33:29;99434.94;;;13.47;52.28
45253;BME280;63171;50.520;30.486;2023-04-25T01:34:19;99440.28;;;13.56;52.59
45253;BME280;63171;50.520;30.486;2023-04-25T01:35:11;99425.16;;;13.49;52.63
45253;BME280;63171;50.520;30.486;2023-04-25T01:36:01;99436.84;;;13.45;52.61
45253;BME280;63171;50.520;30.486;2023-04-25T01:36:54;99434.72;;;13.50;52.79
45253;BME280;63171;50.520;30.486;2023-04-25T01:37:44;99434.72;;;13.50;52.91
45253;BME280;63171;50.520;30.486;2023-04-25T01:38:35;99435.41;;;13.52;52.92
45253;BME280;63171;50.520;30.486;2023-04-25T01:39:25;99431.47;;;13.46;52.85
45253;BME280;63171;50.520;30.486;2023-04-25T01:40:17;99428.56;;;13.60;52.94
45253;BME280;63171;50.520;30.486;2023-04-25T01:41:08;99424.63;;;13.55;53.15
45253;BME280;63171;50.520;30.486;2023-04-25T01:41:59;99427.53;;;13.52;53.14
45253;BME280;63171;50.520;30.486;2023-04-25T01:42:50;99422.84;;;13.55;53.19
45253;BME280;63171;50.520;30.486;2023-04-25T01:43:42;99425.38;;;13.46;53.17
45253;BME280;63171;50.520;30.486;2023-04-25T01:44:32;99418.34;;;13.35;53.06
45253;BME280;63171;50.520;30.486;2023-04-25T01:45:23;99419.81;;;13.17;52.98
45253;BME280;63171;50.520;30.486;2023-04-25T01:46:14;99426.28;;;13.13;53.05
45253;BME280;63171;50.520;30.486;2023-04-25T01:47:06;99422.19;;;13.09;53.41
45253;BME280;63171;50.520;30.486;2023-04-25T01:47:56;99424.00;;;13.19;53.27
45253;BME280;63171;50.520;30.486;2023-04-25T01:48:48;99426.97;;;13.15;53.58
45253;BME280;63171;50.520;30.486;2023-04-25T01:49:38;99414.44;;;13.18;53.40
45253;BME280;63171;50.520;30.486;2023-04-25T01:50:29;99422.00;;;13.23;53.67
45253;BME280;63171;50.520;30.486;2023-04-25T01:51:19;99427.59;;;13.18;53.83
45253;BME280;63171;50.520;30.486;2023-04-25T01:52:12;99419.59;;;13.20;53.82
45253;BME280;63171;50.520;30.486;2023-04-25T01:53:02;99420.38;;;13.43;54.12
45253;BME280;63171;50.520;30.486;2023-04-25T01:53:53;99424.84;;;13.63;54.44
45253;BME280;63171;50.520;30.486;2023-04-25T01:54:44;99414.53;;;13.71;54.27
45253;BME280;63171;50.520;30.486;2023-04-25T01:55:36;99412.28;;;13.67;54.21
45253;BME280;63171;50.520;30.486;2023-04-25T01:56:36;99419.13;;;13.58;54.31
45253;BME280;63171;50.520;30.486;2023-04-25T01:57:30;99421.44;;;13.51;54.12
45253;BME280;63171;50.520;30.486;2023-04-25T01:58:20;99421.78;;;13.47;54.23
45253;BME280;63171;50.520;30.486;2023-04-25T01:59:26;99419.81;;;13.28;54.03
45253;BME280;63171;50.520;30.486;2023-04-25T02:00:27;99414.44;;;13.29;54.41
45253;BME280;63171;50.520;30.486;2023-04-25T02:01:18;99415.78;;;13.24;54.47
45253;BME280;63171;50.520;30.486;2023-04-25T02:02:15;99417.91;;;13.30;54.79
45253;BME280;63171;50.520;30.486;2023-04-25T02:03:07;99416.09;;;13.30;54.53
45253;BME280;63171;50.520;30.486;2023-04-25T02:03:57;99417.41;;;13.36;54.72
45253;BME280;63171;50.520;30.486;2023-04-25T02:04:54;99413.00;;;13.37;54.75
45253;BME280;63171;50.520;30.486;2023-04-25T02:05:45;99410.19;;;13.49;55.12
45253;BME280;63171;50.520;30.486;2023-04-25T02:06:37;99412.84;;;13.49;55.13
45253;BME280;63171;50.520;30.486;2023-04-25T02:07:28;99413.25;;;13.22;54.91
45253;BME280;63171;50.520;30.486;2023-04-25T02:08:20;99419.47;;;12.99;55.11
45253;BME280;63171;50.520;30.486;2023-04-25T02:09:09;99416.97;;;12.64;55.11
45253;BME280;63171;50.520;30.486;2023-04-25T02:10:06;99414.94;;;12.79;55.50
45253;BME280;63171;50.520;30.486;2023-04-25T02:11:01;99413.66;;;12.73;55.77
45253;BME280;63171;50.520;30.486;2023-04-25T02:11:59;99420.06;;;12.80;56.25
45253;BME280;63171;50.520;30.486;2023-04-25T02:12:56;99414.69;;;12.93;56.43
45253;BME280;63171;50.520;30.486;2023-04-25T02:14:10;99417.13;;;12.85;56.67
45253;BME280;63171;50.520;30.486;2023-04-25T02:15:06;99418.06;;;12.61;56.53
45253;BME280;63171;50.520;30.486;2023-04-25T02:16:07;99410.41;;;12.47;56.76
45253;BME280;63171;50.520;30.486;2023-04-25T02:17:01;99415.06;;;12.66;57.19
45253;BME280;63171;50.520;30.486;2023-04-25T02:17:53;99415.66;;;12.47;57.42
45253;BME280;63171;50.520;30.486;2023-04-25T02:18:44;99419.84;;;12.61;57.46
45253;BME280;63171;50.520;30.486;2023-04-25T02:19:34;99416.63;;;12.68;57.75
45253;BME280;63171;50.520;30.486;2023-04-25T02:20:26;99416.41;;;12.71;58.05
45253;BME280;63171;50.520;30.486;2023-04-25T02:21:16;99422.56;;;12.93;58.38
45253;BME280;63171;50.520;30.486;2023-04-25T02:22:07;99419.56;;;13.09;58.65
45253;BME280;63171;50.520;30.486;2023-04-25T02:22:58;99417.31;;;13.15;58.64
45253;BME280;63171;50.520;30.486;2023-04-25T02:23:51;99425.69;;;12.98;58.60
45253;BME280;63171;50.520;30.486;2023-04-25T02:24:41;99423.91;;;12.87;58.54
45253;BME280;63171;50.520;30.486;2023-04-25T02:25:32;99421.88;;;12.91;58.57
45253;BME280;63171;50.520;30.486;2023-04-25T02:26:22;99419.63;;;12.86;58.99
45253;BME280;63171;50.520;30.486;2023-04-25T02:27:14;99417.09;;;12.62;58.57
45253;BME280;63171;50.520;30.486;2023-04-25T02:28:04;99414.13;;;12.56;58.58
45253;BME280;63171;50.520;30.486;2023-04-25T02:28:55;99416.03;;;12.65;59.00
45253;BME280;63171;50.520;30.486;2023-04-25T02:29:45;99420.31;;;12.77;59.35
45253;BME280;63171;50.520;30.486;2023-04-25T02:30:36;99416.53;;;12.70;59.05
45253;BME280;63171;50.520;30.486;2023-04-25T02:31:28;99423.06;;;12.76;59.16
45253;BME280;63171;50.520;30.486;2023-04-25T02:32:21;99417.22;;;12.61;59.04
45253;BME280;63171;50.520;30.486;2023-04-25T02:33:11;99421.91;;;12.57;59.24
45253;BME280;63171;50.520;30.486;2023-04-25T02:34:02;99422.94;;;12.55;59.29
45253;BME280;63171;50.520;30.486;2023-04-25T02:34:52;99417.72;;;12.43;59.50
45253;BME280;63171;50.520;30.486;2023-04-25T02:35:43;99416.38;;;12.49;59.69
45253;BME280;63171;50.520;30.486;2023-04-25T02:36:32;99410.19;;;12.50;59.70
45253;BME280;63171;50.520;30.486;2023-04-25T02:37:24;99415.28;;;12.40;59.62
45253;BME280;63171;50.520;30.486;2023-04-25T02:38:16;99415.78;;;12.34;59.89
45253;BME280;63171;50.520;30.486;2023-04-25T02:39:06;99417.53;;;12.23;59.89
45253;BME280;63171;50.520;30.486;2023-04-25T02:39:57;99411.94;;;12.27;59.90
45253;BME280;63171;50.520;30.486;2023-04-25T02:40:48;99410.78;;;12.31;60.03
45253;BME280;63171;50.520;30.486;2023-04-25T02:41:38;99410.66;;;12.44;60.32
45253;BME280;63171;50.520;30.486;2023-04-25T02:42:29;99408.63;;;12.59;60.59
45253;BME280;63171;50.520;30.486;2023-04-25T02:43:20;99406.22;;;12.33;60.25
45253;BME280;63171;50.520;30.486;2023-04-25T02:44:11;99405.75;;;12.39;60.40
45253;BME280;63171;50.520;30.486;2023-04-25T02:45:01;99409.22;;;12.40;60.54
45253;BME280;63171;50.520;30.486;2023-04-25T02:45:52;99408.00;;;12.55;61.02
45253;BME280;63171;50.520;30.486;2023-04-25T02:46:42;99410.31;;;12.60;60.94
45253;BME280;63171;50.520;30.486;2023-04-25T02:47:32;99399.31;;;12.66;61.40
45253;BME280;63171;50.520;30.486;2023-04-25T02:48:22;99402.91;;;12.76;61.14
45253;BME280;63171;50.520;30.486;2023-04-25T02:49:13;99400.63;;;12.71;61.09
45253;BME280;63171;50.520;30.486;2023-04-25T02:50:05;99411.50;;;12.56;60.96
45253;BME280;63171;50.520;30.486;2023-04-25T02:50:56;99409.09;;;12.64;61.04
45253;BME280;63171;50.520;30.486;2023-04-25T02:51:46;99408.13;;;12.20;60.73
45253;BME280;63171;50.520;30.486;2023-04-25T02:52:37;99408.03;;;12.44;60.96
45253;BME280;63171;50.520;30.486;2023-04-25T02:53:42;99409.94;;;12.53;61.23
45253;BME280;63171;50.520;30.486;2023-04-25T02:54:32;99403.75;;;12.43;61.21
45253;BME280;63171;50.520;30.486;2023-04-25T02:55:23;99407.44;;;12.63;61.41
45253;BME280;63171;50.520;30.486;2023-04-25T02:56:16;99408.41;;;12.73;61.43
45253;BME280;63171;50.520;30.486;2023-04-25T02:57:06;99407.91;;;12.46;61.25
45253;BME280;63171;50.520;30.486;2023-04-25T02:58:00;99402.41;;;12.49;61.48
45253;BME280;63171;50.520;30.486;2023-04-25T02:59:00;99410.91;;;12.63;61.75
45253;BME280;63171;50.520;30.486;2023-04-25T02:59:52;99409.09;;;12.53;61.44
45253;BME280;63171;50.520;30.486;2023-04-25T03:00:42;99411.00;;;12.51;61.72
45253;BME280;63171;50.520;30.486;2023-04-25T03:01:33;99410.06;;;12.52;61.55
45253;BME280;63171;50.520;30.486;2023-04-25T03:02:23;99413.78;;;12.60;61.51
45253;BME280;63171;50.520;30.486;2023-04-25T03:03:14;99408.88;;;12.45;61.40
45253;BME280;63171;50.520;30.486;2023-04-25T03:04:06;99411.13;;;12.60;61.79
45253;BME280;63171;50.520;30.486;2023-04-25T03:04:57;99409.34;;;12.83;61.80
45253;BME280;63171;50.520;30.486;2023-04-25T03:05:47;99410.75;;;12.98;61.94
45253;BME280;63171;50.520;30.486;2023-04-25T03:06:41;99406.81;;;12.93;61.99
45253;BME280;63171;50.520;30.486;2023-04-25T03:07:31;99415.41;;;12.95;61.73
45253;BME280;63171;50.520;30.486;2023-04-25T03:08:22;99415.41;;;13.06;61.82
45253;BME280;63171;50.520;30.486;2023-04-25T03:09:14;99404.78;;;12.96;61.90
45253;BME280;63171;50.520;30.486;2023-04-25T03:10:05;99410.84;;;13.08;61.93
45253;BME280;63171;50.520;30.486;2023-04-25T03:10:56;99405.81;;;13.16;61.81
45253;BME280;63171;50.520;30.486;2023-04-25T03:11:48;99414.56;;;13.06;61.67
45253;BME280;63171;50.520;30.486;2023-04-25T03:12:38;99410.03;;;13.19;61.90
45253;BME280;63171;50.520;30.486;2023-04-25T03:13:29;99408.31;;;13.18;61.93
45253;BME280;63171;50.520;30.486;2023-04-25T03:14:20;99416.59;;;13.24;61.70
45253;BME280;63171;50.520;30.486;2023-04-25T03:15:10;99414.44;;;13.29;61.57
45253;BME280;63171;50.520;30.486;2023-04-25T03:16:00;99409.03;;;13.31;61.81
45253;BME280;63171;50.520;30.486;2023-04-25T03:16:52;99411.91;;;13.17;61.52
45253;BME280;63171;50.520;30.486;2023-04-25T03:17:42;99409.75;;;13.33;61.53
45253;BME280;63171;50.520;30.486;2023-04-25T03:18:33;99417.03;;;13.41;61.61
45253;BME280;63171;50.520;30.486;2023-04-25T03:19:23;99409.84;;;13.43;61.21
45253;BME280;63171;50.520;30.486;2023-04-25T03:20:14;99416.56;;;13.36;61.35
45253;BME280;63171;50.520;30.486;2023-04-25T03:21:04;99409.94;;;13.52;61.49
45253;BME280;63171;50.520;30.486;2023-04-25T03:21:55;99412.38;;;13.76;61.76
45253;BME280;63171;50.520;30.486;2023-04-25T03:22:45;99405.41;;;13.75;61.14
45253;BME280;63171;50.520;30.486;2023-04-25T03:23:36;99412.09;;;13.47;60.96
45253;BME280;63171;50.520;30.486;2023-04-25T03:24:27;99408.56;;;13.37;60.87
45253;BME280;63171;50.520;30.486;2023-04-25T03:25:18;99409.97;;;13.41;60.88
45253;BME280;63171;50.520;30.486;2023-04-25T03:26:08;99410.06;;;13.51;60.81
45253;BME280;63171;50.520;30.486;2023-04-25T03:26:59;99408.06;;;13.43;60.77
45253;BME280;63171;50.520;30.486;2023-04-25T03:27:50;99407.75;;;13.57;60.83
45253;BME280;63171;50.520;30.486;2023-04-25T03:28:41;99402.19;;;13.72;60.78
45253;BME280;63171;50.520;30.486;2023-04-25T03:29:31;99405.63;;;13.83;60.84
45253;BME280;63171;50.520;30.486;2023-04-25T03:30:25;99404.91;;;13.81;60.77
45253;BME280;63171;50.520;30.486;2023-04-25T03:31:16;99403.50;;;13.77;60.57
45253;BME280;63171;50.520;30.486;2023-04-25T03:32:06;99403.38;;;13.79;60.43
45253;BME280;63171;50.520;30.486;2023-04-25T03:32:56;99412.19;;;13.89;60.52
45253;BME280;63171;50.520;30.486;2023-04-25T03:33:47;99403.97;;;14.03;60.57
45253;BME280;63171;50.520;30.486;2023-04-25T03:34:37;99407.56;;;14.02;60.59
45253;BME280;63171;50.520;30.486;2023-04-25T03:35:27;99406.47;;;14.05;60.21
45253;BME280;63171;50.520;30.486;2023-04-25T03:36:17;99409.78;;;13.65;59.95
45253;BME280;63171;50.520;30.486;2023-04-25T03:37:08;99414.22;;;13.65;59.90
45253;BME280;63171;50.520;30.486;2023-04-25T03:38:01;99410.63;;;13.86;59.94
45253;BME280;63171;50.520;30.486;2023-04-25T03:38:56;99407.56;;;14.02;59.95
45253;BME280;63171;50.520;30.486;2023-04-25T03:39:47;99401.78;;;14.08;59.84
45253;BME280;63171;50.520;30.486;2023-04-25T03:40:39;99409.06;;;14.26;59.83
45253;BME280;63171;50.520;30.486;2023-04-25T03:41:40;99409.28;;;14.34;59.84
45253;BME280;63171;50.520;30.486;2023-04-25T03:42:36;99402.78;;;14.38;59.52
45253;BME280;63171;50.520;30.486;2023-04-25T03:43:26;99406.84;;;14.21;59.28
45253;BME280;63171;50.520;30.486;2023-04-25T03:44:23;99403.44;;;14.30;59.35
45253;BME280;63171;50.520;30.486;2023-04-25T03:45:13;99397.03;;;14.54;59.34
45253;BME280;63171;50.520;30.486;2023-04-25T03:46:04;99402.03;;;14.47;58.94
45253;BME280;63171;50.520;30.486;2023-04-25T03:46:54;99400.50;;;14.44;58.72
45253;BME280;63171;50.520;30.486;2023-04-25T03:47:46;99407.03;;;14.50;58.60
45253;BME280;63171;50.520;30.486;2023-04-25T03:48:36;99402.16;;;14.76;58.95
45253;BME280;63171;50.520;30.486;2023-04-25T03:49:27;99399.53;;;14.55;58.39
45253;BME280;63171;50.520;30.486;2023-04-25T03:50:21;99408.19;;;14.57;58.43
45253;BME280;63171;50.520;30.486;2023-04-25T03:51:12;99401.19;;;14.46;57.89
45253;BME280;63171;50.520;30.486;2023-04-25T03:52:05;99402.78;;;14.38;57.90
45253;BME280;63171;50.520;30.486;2023-04-25T03:53:00;99407.84;;;14.51;57.83
45253;BME280;63171;50.520;30.486;2023-04-25T03:53:53;99397.38;;;14.39;57.91
45253;BME280;63171;50.520;30.486;2023-04-25T03:55:05;99399.88;;;14.62;57.99
45253;BME280;63171;50.520;30.486;2023-04-25T03:55:56;99397.69;;;14.76;57.87
45253;BME280;63171;50.520;30.486;2023-04-25T03:56:46;99399.94;;;14.81;57.79
45253;BME280;63171;50.520;30.486;2023-04-25T03:57:42;99404.69;;;14.87;57.60
45253;BME280;63171;50.520;30.486;2023-04-25T03:58:32;99401.50;;;14.84;57.36
45253;BME280;63171;50.520;30.486;2023-04-25T03:59:23;99397.69;;;14.76;57.31
45253;BME280;63171;50.520;30.486;2023-04-25T04:00:14;99403.16;;;14.54;57.01
45253;BME280;63171;50.520;30.486;2023-04-25T04:01:05;99402.88;;;14.88;57.06
45253;BME280;63171;50.520;30.486;2023-04-25T04:02:00;99397.06;;;14.94;57.02
45253;BME280;63171;50.520;30.486;2023-04-25T04:02:52;99401.84;;;15.10;57.20
45253;BME280;63171;50.520;30.486;2023-04-25T04:03:42;99393.94;;;15.19;56.79
45253;BME280;63171;50.520;30.486;2023-04-25T04:04:33;99400.78;;;15.41;56.94
45253;BME280;63171;50.520;30.486;2023-04-25T04:05:24;99403.84;;;15.56;57.05
45253;BME280;63171;50.520;30.486;2023-04-25T04:06:18;99403.00;;;15.55;56.47
45253;BME280;63171;50.520;30.486;2023-04-25T04:07:13;99390.91;;;15.43;56.28
45253;BME280;63171;50.520;30.486;2023-04-25T04:08:07;99404.03;;;15.64;56.30
45253;BME280;63171;50.520;30.486;2023-04-25T04:08:58;99391.09;;;15.71;56.08
45253;BME280;63171;50.520;30.486;2023-04-25T04:09:48;99401.34;;;15.83;55.91
45253;BME280;63171;50.520;30.486;2023-04-25T04:10:47;99388.44;;;15.90;55.72
45253;BME280;63171;50.520;30.486;2023-04-25T04:11:38;99397.59;;;15.95;55.58
45253;BME280;63171;50.520;30.486;2023-04-25T04:12:28;99399.25;;;15.96;55.33
45253;BME280;63171;50.520;30.486;2023-04-25T04:13:19;99399.53;;;16.03;55.14
45253;BME280;63171;50.520;30.486;2023-04-25T04:14:09;99392.72;;;16.01;54.84
45253;BME280;63171;50.520;30.486;2023-04-25T04:15:04;99392.75;;;15.91;54.45
45253;BME280;63171;50.520;30.486;2023-04-25T04:15:55;99393.16;;;15.96;54.34
45253;BME280;63171;50.520;30.486;2023-04-25T04:16:46;99393.84;;;15.98;54.24
45253;BME280;63171;50.520;30.486;2023-04-25T04:17:36;99393.44;;;16.03;53.93
45253;BME280;63171;50.520;30.486;2023-04-25T04:18:27;99398.19;;;15.89;53.55
45253;BME280;63171;50.520;30.486;2023-04-25T04:19:19;99407.56;;;16.11;53.72
45253;BME280;63171;50.520;30.486;2023-04-25T04:20:17;99397.84;;;16.21;53.60
45253;BME280;63171;50.520;30.486;2023-04-25T04:21:07;99390.72;;;16.32;53.43
45253;BME280;63171;50.520;30.486;2023-04-25T04:22:02;99387.63;;;16.36;53.25
45253;BME280;63171;50.520;30.486;2023-04-25T04:22:52;99385.69;;;16.29;53.02
45253;BME280;63171;50.520;30.486;2023-04-25T04:23:43;99387.94;;;16.33;52.93
45253;BME280;63171;50.520;30.486;2023-04-25T04:24:33;99392.38;;;16.33;52.59
45253;BME280;63171;50.520;30.486;2023-04-25T04:25:27;99388.03;;;16.41;52.63
45253;BME280;63171;50.520;30.486;2023-04-25T04:26:48;99394.28;;;16.50;52.43
45253;BME280;63171;50.520;30.486;2023-04-25T04:27:57;99384.53;;;16.50;52.10
45253;BME280;63171;50.520;30.486;2023-04-25T04:28:56;99386.19;;;16.51;52.04
45253;BME280;63171;50.520;30.486;2023-04-25T04:30:09;99394.81;;;16.53;51.79
45253;BME280;63171;50.520;30.486;2023-04-25T04:31:09;99391.91;;;16.47;51.65
45253;BME280;63171;50.520;30.486;2023-04-25T04:32:00;99390.19;;;16.55;51.74
45253;BME280;63171;50.520;30.486;2023-04-25T04:32:51;99392.66;;;16.67;51.60
45253;BME280;63171;50.520;30.486;2023-04-25T04:33:42;99393.66;;;16.75;51.42
45253;BME280;63171;50.520;30.486;2023-04-25T04:34:33;99392.63;;;16.86;51.44